Terminal Aerodrome Forecast
Issued by NWS

Home | Current Version | Previous Version | Text Only | Print | Product List | Glossary Off
Versions: 1 2 3 4 5 6 7 8 9 10 11 12 13 14 15 16 17 18 19 20 21 22 23

000
FTUS43 KICT 280632 AAA
TAFSLN
TAF AMD
KSLN 280632Z 2807/2906 07004KT P6SM OVC025
     FM280900 10005KT 6SM BR OVC015
      TEMPO 2809/2813 4SM BR OVC006
     FM281600 11009KT P6SM BKN012
     FM281800 10013G20KT P6SM BKN015
     FM282300 09014KT P6SM VCSH OVC020=

USA.gov is the U.S. government's official web portal to all federal, state and local government web resources and services.